Bookmark and Share
Track history (hours):
 

Margaret F. Cooper

More information available from US FCC via Universal Licensing System and Coast Guard Vessel Documentation Center.

Last reported at 2014-Apr-10 11:30 UTC. Time now 2014-Apr-21 15:06 UTC.
Position N 30°07' W 090°59'.
Warning: this ship's position is 11 days out of date.

Length 30 m; draft 4.5 m.

Type: Tug. MMSI: 366983480.

NotesDate/timePositionNaut miles runAvg speedWind from/ knotsBaromVisibWave heightAir tempDewpointWater temp
2014-Apr-10 11:30N 30°07' W 090°59'9 1.8
2014-Apr-10 06:33N 30°02' W 090°50'1 0.0
2014-Apr-08 11:18N 30°01' W 090°50'0 0.0
2014-Apr-08 10:33N 30°01' W 090°50'1 0.4
2014-Apr-08 09:21N 30°02' W 090°50'  
2014-Apr-03 23:31N 30°01' W 090°50'8 0.8
2014-Apr-03 12:31N 30°02' W 090°41'0 0.4
2014-Apr-03 11:33N 30°03' W 090°41'0 0.0
2014-Apr-03 10:33N 30°03' W 090°41'0 0.0
2014-Apr-03 09:34N 30°03' W 090°41'2 1.5
2014-Apr-03 08:33N 30°03' W 090°39'3 2.7
2014-Apr-03 07:34N 30°03' W 090°36'0 0.0
2014-Apr-03 06:33N 30°03' W 090°36'2 2.1
2014-Apr-03 05:33N 30°03' W 090°33'0 0.0
2014-Apr-03 04:33N 30°03' W 090°33'0 0.0
2014-Apr-03 03:33N 30°03' W 090°33'0 0.0
2014-Apr-03 02:33N 30°03' W 090°33'0 0.0
2014-Apr-03 01:33N 30°03' W 090°33'0 0.0
2014-Apr-03 00:33N 30°03' W 090°33'0 0.3
2014-Apr-02 23:33N 30°03' W 090°33'0 0.3
2014-Apr-02 22:33N 30°03' W 090°33'0 0.0
2014-Apr-02 21:33N 30°03' W 090°33'0 0.0
2014-Apr-02 20:33N 30°03' W 090°33'0 0.0
2014-Apr-02 19:33N 30°03' W 090°33'0 0.0
2014-Apr-02 18:33N 30°03' W 090°33'1 1.0
2014-Apr-02 17:33N 30°03' W 090°35'0 0.1
2014-Apr-02 16:33N 30°03' W 090°35'5 1.3
2014-Apr-02 12:33N 30°03' W 090°29'0 0.0
2014-Apr-02 11:29N 30°03' W 090°29'0 0.0
2014-Apr-02 10:21N 30°03' W 090°29'6 0.2
2014-Apr-01 08:25N 29°59' W 090°24'1 0.6
2014-Apr-01 07:27N 29°58' W 090°24'11 2.6
2014-Apr-01 03:08N 30°03' W 090°36'2 0.2
2014-Mar-31 13:33N 30°03' W 090°33'4 4.2
2014-Mar-31 12:29N 30°03' W 090°28'0 0.0
2014-Mar-31 11:30N 30°03' W 090°28'  

Dump ship's entire track history

sailing weather and tide predictions

Margaret F. Cooper — WDB9825 — position and weather